createdAt,value
2023-05-05T00:01:02.315Z,20.10
2023-05-05T00:03:29.673Z,20.10
2023-05-05T00:05:58.958Z,20.10
2023-05-05T00:08:27.895Z,20.10
2023-05-05T00:10:56.066Z,20.10
2023-05-05T00:13:23.478Z,20.10
2023-05-05T00:15:52.910Z,20.10
2023-05-05T00:18:20.673Z,20.00
2023-05-05T00:20:48.261Z,20.10
2023-05-05T00:23:16.154Z,20.10
2023-05-05T00:25:43.073Z,20.10
2023-05-05T00:28:10.445Z,20.00
2023-05-05T00:30:39.318Z,20.00
2023-05-05T00:33:08.394Z,20.00
2023-05-05T00:35:35.291Z,20.10
2023-05-05T00:38:03.104Z,20.00
2023-05-05T00:40:30.627Z,20.00
2023-05-05T00:42:59.768Z,20.00
2023-05-05T00:45:26.983Z,20.00
2023-05-05T00:48:01.385Z,20.00
2023-05-05T00:50:30.315Z,20.00
2023-05-05T00:53:01.115Z,20.00
2023-05-05T00:55:29.920Z,20.00
2023-05-05T00:58:02.192Z,20.00
2023-05-05T01:00:30.130Z,20.00
2023-05-05T01:02:57.416Z,20.00
2023-05-05T01:05:27.083Z,20.00
2023-05-05T01:08:23.359Z,20.00
2023-05-05T01:10:57.550Z,20.00
2023-05-05T01:14:00.229Z,20.00
2023-05-05T01:16:31.032Z,20.00
2023-05-05T01:19:12.662Z,20.00
2023-05-05T01:21:52.101Z,20.00
2023-05-05T01:24:49.763Z,20.00
2023-05-05T01:27:43.009Z,20.00
2023-05-05T01:30:15.505Z,20.00
2023-05-05T01:32:52.125Z,20.00
2023-05-05T01:35:27.278Z,20.00
2023-05-05T01:38:16.328Z,20.00
2023-05-05T01:40:48.278Z,20.00
2023-05-05T01:43:18.980Z,20.00
2023-05-05T01:45:47.721Z,20.00
2023-05-05T01:48:18.481Z,20.00
2023-05-05T01:50:48.361Z,20.00
2023-05-05T01:53:17.829Z,20.00
2023-05-05T01:55:46.947Z,20.00
2023-05-05T01:58:16.253Z,20.00
2023-05-05T02:00:44.387Z,20.00
2023-05-05T02:03:14.901Z,19.90
2023-05-05T02:05:43.784Z,19.90
2023-05-05T02:08:11.540Z,20.00
2023-05-05T02:10:43.672Z,19.90
2023-05-05T02:13:13.211Z,19.90
2023-05-05T02:15:41.920Z,19.90
2023-05-05T02:18:09.988Z,19.90
2023-05-05T02:20:39.746Z,19.90
2023-05-05T02:23:08.058Z,19.90
2023-05-05T02:25:42.082Z,20.00
2023-05-05T02:28:17.233Z,20.00
2023-05-05T02:30:48.632Z,19.90
2023-05-05T02:33:18.422Z,19.90
2023-05-05T02:35:50.013Z,20.00
2023-05-05T02:38:18.753Z,19.90
2023-05-05T02:40:49.446Z,19.90
2023-05-05T02:43:22.080Z,19.90
2023-05-05T02:45:52.471Z,19.90
2023-05-05T02:48:19.420Z,19.90
2023-05-05T02:50:46.262Z,19.90
2023-05-05T02:53:13.429Z,20.00
2023-05-05T02:55:46.863Z,19.90
2023-05-05T02:58:34.737Z,19.90
2023-05-05T03:01:04.623Z,19.90
2023-05-05T03:03:41.101Z,19.90
2023-05-05T03:06:16.524Z,19.90
2023-05-05T03:08:53.935Z,19.90
2023-05-05T03:11:29.376Z,20.00
2023-05-05T03:14:13.898Z,19.90
2023-05-05T03:16:42.634Z,20.00
2023-05-05T03:19:12.465Z,19.90
2023-05-05T03:21:40.454Z,19.90
2023-05-05T03:24:18.118Z,19.90
2023-05-05T03:26:47.835Z,19.90
2023-05-05T03:29:15.833Z,20.00
2023-05-05T03:31:43.003Z,19.90
2023-05-05T03:34:09.894Z,19.90
2023-05-05T03:36:36.957Z,19.90
2023-05-05T03:39:03.899Z,19.90
2023-05-05T03:41:30.841Z,19.90
2023-05-05T03:43:57.745Z,19.90
2023-05-05T03:46:24.712Z,19.90
2023-05-05T03:48:51.802Z,19.90
2023-05-05T03:51:18.798Z,19.90
2023-05-05T03:53:45.770Z,19.90
2023-05-05T03:56:12.741Z,19.90
2023-05-05T03:58:39.632Z,19.90
2023-05-05T04:01:07.111Z,19.90
2023-05-05T04:03:34.091Z,19.90
2023-05-05T04:06:01.562Z,20.00
2023-05-05T04:08:28.412Z,19.90
2023-05-05T04:10:55.386Z,19.90
2023-05-05T04:13:22.234Z,20.00
2023-05-05T04:15:49.163Z,20.00
2023-05-05T04:18:16.201Z,20.00
2023-05-05T04:20:43.265Z,20.00
2023-05-05T04:23:10.160Z,20.00
2023-05-05T04:25:37.186Z,20.00
2023-05-05T04:28:04.223Z,20.00
2023-05-05T04:30:31.176Z,20.00
2023-05-05T04:32:58.236Z,20.00
2023-05-05T04:35:25.214Z,20.00
2023-05-05T04:37:53.533Z,20.00
2023-05-05T04:40:20.543Z,20.10
2023-05-05T04:42:48.980Z,20.10
2023-05-05T04:45:15.971Z,20.10
2023-05-05T04:47:44.488Z,20.10
2023-05-05T04:50:11.599Z,20.10
2023-05-05T04:52:38.679Z,20.10
2023-05-05T04:55:06.239Z,20.10
2023-05-05T04:57:33.132Z,20.20
2023-05-05T05:00:01.687Z,20.20
2023-05-05T05:02:29.629Z,20.20
2023-05-05T05:04:56.579Z,20.30
2023-05-05T05:07:23.914Z,20.30
2023-05-05T05:09:50.754Z,20.40
2023-05-05T05:12:17.697Z,20.40
2023-05-05T05:14:44.715Z,20.50
2023-05-05T05:17:11.629Z,20.50
2023-05-05T05:19:39.245Z,20.60
2023-05-05T05:22:08.190Z,20.60
2023-05-05T05:24:35.261Z,20.70
2023-05-05T05:27:02.837Z,20.60
2023-05-05T05:29:29.731Z,20.60
2023-05-05T05:31:56.700Z,20.60
2023-05-05T05:34:23.915Z,20.70
2023-05-05T05:36:50.940Z,20.70
2023-05-05T05:39:17.829Z,20.70
2023-05-05T05:41:44.762Z,20.80
2023-05-05T05:44:11.617Z,20.80
2023-05-05T05:46:38.524Z,20.80
2023-05-05T05:49:06.897Z,20.90
2023-05-05T05:51:34.051Z,20.90
2023-05-05T05:54:01.040Z,20.90
2023-05-05T05:56:29.015Z,20.90
2023-05-05T05:58:56.097Z,20.90
2023-05-05T06:01:23.737Z,21.00
2023-05-05T06:03:51.164Z,20.90
2023-05-05T06:06:19.171Z,21.00
2023-05-05T06:08:46.497Z,21.00
2023-05-05T06:11:15.925Z,21.00
2023-05-05T06:13:42.822Z,21.00
2023-05-05T06:16:09.736Z,21.00
2023-05-05T06:18:36.700Z,21.00
2023-05-05T06:21:06.008Z,21.10
2023-05-05T06:23:33.019Z,21.00
2023-05-05T06:26:00.100Z,21.00
2023-05-05T06:28:27.358Z,21.00
2023-05-05T06:30:54.243Z,21.00
2023-05-05T06:33:22.209Z,21.10
2023-05-05T06:35:49.741Z,21.10
2023-05-05T06:38:16.637Z,21.10
2023-05-05T06:40:43.526Z,21.10
2023-05-05T06:43:10.538Z,21.10
2023-05-05T06:45:37.420Z,21.10
2023-05-05T06:48:04.546Z,21.10
2023-05-05T06:50:31.479Z,21.10
2023-05-05T06:52:58.409Z,21.10
2023-05-05T06:55:25.557Z,21.10
2023-05-05T06:57:52.655Z,21.10
2023-05-05T07:00:22.395Z,21.10
2023-05-05T07:02:49.346Z,21.10
2023-05-05T07:05:16.510Z,21.10
2023-05-05T07:07:56.695Z,21.10
2023-05-05T07:10:24.594Z,21.10
2023-05-05T07:12:52.722Z,21.10
2023-05-05T07:15:28.745Z,21.10
2023-05-05T07:17:56.710Z,21.10
2023-05-05T07:20:24.328Z,21.10
2023-05-05T07:22:51.466Z,21.10
2023-05-05T07:25:19.634Z,21.10
2023-05-05T07:27:47.122Z,21.10
2023-05-05T07:30:18.115Z,21.10
2023-05-05T07:32:46.970Z,21.10
2023-05-05T07:35:13.990Z,21.10
2023-05-05T07:37:41.136Z,21.10
2023-05-05T07:40:08.935Z,21.10
2023-05-05T07:42:36.060Z,21.10
2023-05-05T07:45:03.417Z,21.10
2023-05-05T07:47:30.466Z,21.10
2023-05-05T07:49:57.802Z,21.10
2023-05-05T07:52:37.087Z,21.10
2023-05-05T07:55:11.066Z,21.10
2023-05-05T07:57:38.426Z,21.10
2023-05-05T08:00:06.253Z,21.10
2023-05-05T08:02:33.401Z,21.20
2023-05-05T08:05:02.867Z,21.10
2023-05-05T08:07:29.775Z,21.10
2023-05-05T08:09:57.566Z,21.10
2023-05-05T08:12:24.482Z,21.10
2023-05-05T08:14:52.584Z,21.10
2023-05-05T08:17:20.493Z,21.10
2023-05-05T08:19:47.499Z,21.10
2023-05-05T08:22:14.366Z,21.10
2023-05-05T08:24:41.334Z,21.00
2023-05-05T08:27:08.161Z,21.00
2023-05-05T08:29:35.055Z,21.00
2023-05-05T08:32:03.041Z,21.00
2023-05-05T08:34:29.992Z,21.00
2023-05-05T08:36:56.966Z,21.00
2023-05-05T08:39:23.886Z,21.00
2023-05-05T08:41:50.808Z,21.00
2023-05-05T08:44:17.935Z,21.00
2023-05-05T08:46:45.186Z,21.00
2023-05-05T08:49:17.891Z,21.00
2023-05-05T08:51:46.776Z,21.00
2023-05-05T08:54:18.284Z,21.00
2023-05-05T08:56:47.186Z,21.00
2023-05-05T08:59:15.767Z,21.00
2023-05-05T09:01:45.312Z,21.00
2023-05-05T09:04:12.174Z,21.00
2023-05-05T09:06:39.184Z,21.00
2023-05-05T09:09:07.086Z,21.00
2023-05-05T09:11:35.488Z,20.90
2023-05-05T09:14:02.907Z,20.90
2023-05-05T09:16:31.275Z,20.90
2023-05-05T09:19:05.074Z,20.90
2023-05-05T09:21:33.130Z,20.90
2023-05-05T09:24:09.096Z,20.90
2023-05-05T09:26:43.796Z,20.90
2023-05-05T09:29:17.372Z,20.80
2023-05-05T09:31:44.443Z,20.90
2023-05-05T09:34:16.049Z,20.80
2023-05-05T09:36:49.267Z,20.90
2023-05-05T09:39:20.749Z,20.80
2023-05-05T09:41:47.770Z,20.80
2023-05-05T09:44:16.219Z,20.80
2023-05-05T09:46:53.287Z,20.80
2023-05-05T09:49:26.906Z,20.80
2023-05-05T09:51:54.951Z,20.80
2023-05-05T09:54:23.364Z,20.80
2023-05-05T09:56:51.320Z,20.80
2023-05-05T09:59:19.332Z,20.80
2023-05-05T10:01:46.732Z,20.80
2023-05-05T10:04:28.882Z,20.80
2023-05-05T10:06:58.477Z,20.80
2023-05-05T10:09:26.414Z,20.80
2023-05-05T10:11:53.932Z,20.80
2023-05-05T10:14:25.823Z,20.80
2023-05-05T10:16:54.768Z,20.80
2023-05-05T10:19:24.248Z,20.80
2023-05-05T10:21:59.664Z,20.70
2023-05-05T10:24:32.634Z,20.70
2023-05-05T10:27:03.342Z,20.70
2023-05-05T10:29:52.400Z,20.70
2023-05-05T10:35:03.738Z,20.70
2023-05-05T10:37:31.042Z,20.70
2023-05-05T10:39:58.827Z,20.70
2023-05-05T10:42:27.831Z,20.70
2023-05-05T10:44:54.997Z,20.70
2023-05-05T10:47:23.785Z,20.70
2023-05-05T10:50:06.712Z,20.70
2023-05-05T10:52:56.406Z,20.70
2023-05-05T10:56:01.999Z,20.70
2023-05-05T10:58:46.879Z,20.70
2023-05-05T11:01:35.251Z,20.60
2023-05-05T11:04:23.860Z,20.60
2023-05-05T11:07:11.789Z,20.60
2023-05-05T11:09:55.762Z,20.60
2023-05-05T11:12:22.880Z,20.60
2023-05-05T11:15:28.108Z,20.60
2023-05-05T11:17:59.129Z,20.60
2023-05-05T11:20:42.336Z,20.60
2023-05-05T11:23:09.217Z,20.60
2023-05-05T11:25:44.618Z,20.60
2023-05-05T11:28:21.543Z,20.60
2023-05-05T11:31:00.182Z,20.60
2023-05-05T11:33:39.660Z,20.60
2023-05-05T11:36:11.651Z,20.60
2023-05-05T11:38:57.383Z,20.60
2023-05-05T11:41:39.728Z,20.60
2023-05-05T11:44:17.284Z,20.60
2023-05-05T11:46:53.238Z,20.60
2023-05-05T11:49:34.272Z,20.60
2023-05-05T11:52:02.295Z,20.60
2023-05-05T11:54:33.257Z,20.60
2023-05-05T11:57:05.185Z,20.60
2023-05-05T11:59:32.535Z,20.60
2023-05-05T12:02:00.005Z,20.60
2023-05-05T12:04:26.926Z,20.60
2023-05-05T12:06:55.519Z,20.60
2023-05-05T12:09:23.409Z,20.60
2023-05-05T12:11:52.409Z,20.60
2023-05-05T12:14:19.784Z,20.60
2023-05-05T12:17:09.146Z,20.60
2023-05-05T12:19:36.313Z,20.60
2023-05-05T12:22:06.114Z,20.60
2023-05-05T12:24:33.594Z,20.60
2023-05-05T12:27:10.832Z,20.60
2023-05-05T12:29:38.108Z,20.60
2023-05-05T12:32:05.746Z,20.60
2023-05-05T12:34:32.966Z,20.60
2023-05-05T12:37:00.147Z,20.60
2023-05-05T12:39:36.699Z,20.60
2023-05-05T12:42:06.849Z,20.60
2023-05-05T12:44:37.801Z,20.60
2023-05-05T12:47:05.170Z,20.60
2023-05-05T12:49:34.704Z,20.60
2023-05-05T12:52:01.672Z,20.60
2023-05-05T12:54:31.445Z,20.60
2023-05-05T12:56:58.947Z,20.60
2023-05-05T12:59:25.964Z,20.60
2023-05-05T13:01:54.615Z,20.50
2023-05-05T13:04:27.557Z,20.60
2023-05-05T13:07:11.958Z,20.60
2023-05-05T13:09:39.254Z,20.60
2023-05-05T13:12:08.555Z,20.50
2023-05-05T13:14:36.549Z,20.50
2023-05-05T13:17:03.880Z,20.50
2023-05-05T13:19:32.212Z,20.50
2023-05-05T13:21:59.937Z,20.50
2023-05-05T13:24:42.062Z,20.50
2023-05-05T13:27:14.357Z,20.50
2023-05-05T13:29:42.655Z,20.50
2023-05-05T13:32:09.734Z,20.50
2023-05-05T13:34:37.356Z,20.50
2023-05-05T13:37:04.255Z,20.50
2023-05-05T13:39:31.308Z,20.50
2023-05-05T13:41:58.189Z,20.40
2023-05-05T13:44:25.264Z,20.40
2023-05-05T13:46:52.212Z,20.40
2023-05-05T13:49:20.189Z,20.40
2023-05-05T13:51:47.356Z,20.40
2023-05-05T13:54:14.579Z,20.40
2023-05-05T13:56:41.509Z,20.40
2023-05-05T13:59:08.498Z,20.40
2023-05-05T14:01:35.611Z,20.40
2023-05-05T14:04:05.395Z,20.40
2023-05-05T14:06:32.745Z,20.40
2023-05-05T14:08:59.731Z,20.40
2023-05-05T14:11:26.740Z,20.40
2023-05-05T14:13:54.203Z,20.40
2023-05-05T14:16:21.193Z,20.30
2023-05-05T14:18:48.131Z,20.30
2023-05-05T14:21:15.207Z,20.30
2023-05-05T14:23:43.687Z,20.30
2023-05-05T14:26:10.619Z,20.30
2023-05-05T14:28:37.552Z,20.30
2023-05-05T14:31:07.318Z,20.30
2023-05-05T14:33:34.200Z,20.30
2023-05-05T14:36:01.112Z,20.40
2023-05-05T14:38:28.109Z,20.30
2023-05-05T14:40:55.054Z,20.30
2023-05-05T14:43:22.013Z,20.40
2023-05-05T14:45:48.945Z,20.40
2023-05-05T14:48:16.769Z,20.40
2023-05-05T14:50:46.324Z,20.40
2023-05-05T14:53:13.261Z,20.40
2023-05-05T14:55:40.149Z,20.40
2023-05-05T14:58:07.138Z,20.40
2023-05-05T15:00:34.087Z,20.40
2023-05-05T15:03:01.266Z,20.40
2023-05-05T15:05:28.241Z,20.40
2023-05-05T15:07:55.239Z,20.40
2023-05-05T15:10:22.283Z,20.40
2023-05-05T15:12:49.376Z,20.40
2023-05-05T15:15:16.344Z,20.40
2023-05-05T15:17:44.318Z,20.40
2023-05-05T15:20:11.791Z,20.40
2023-05-05T15:22:38.848Z,20.40
2023-05-05T15:25:09.580Z,20.40
2023-05-05T15:27:37.994Z,20.40
2023-05-05T15:30:06.023Z,20.40
2023-05-05T15:32:33.405Z,20.40
2023-05-05T15:35:00.585Z,20.40
2023-05-05T15:37:29.027Z,20.40
2023-05-05T15:39:56.984Z,20.40
2023-05-05T15:42:26.188Z,20.40
2023-05-05T15:44:53.088Z,20.40
2023-05-05T15:47:20.005Z,20.30
2023-05-05T15:49:46.910Z,20.30
2023-05-05T15:52:14.077Z,20.30
2023-05-05T15:54:42.375Z,20.30
2023-05-05T15:57:09.880Z,20.30
2023-05-05T15:59:38.172Z,20.30
2023-05-05T16:02:05.135Z,20.30
2023-05-05T16:04:32.126Z,20.30
2023-05-05T16:06:59.374Z,20.20
2023-05-05T16:09:26.295Z,20.20
2023-05-05T16:11:54.355Z,20.30
2023-05-05T16:14:21.228Z,20.20
2023-05-05T16:16:48.232Z,20.20
2023-05-05T16:19:15.157Z,20.20
2023-05-05T16:21:44.934Z,20.20
2023-05-05T16:24:16.125Z,20.20
2023-05-05T16:26:44.619Z,20.20
2023-05-05T16:29:12.349Z,20.20
2023-05-05T16:31:39.913Z,20.20
2023-05-05T16:34:07.153Z,20.20
2023-05-05T16:36:34.033Z,20.10
2023-05-05T16:39:01.013Z,20.10
2023-05-05T16:41:27.974Z,20.10
2023-05-05T16:43:56.409Z,20.10
2023-05-05T16:46:23.353Z,20.10
2023-05-05T16:48:50.677Z,20.10
2023-05-05T16:51:17.692Z,20.10
2023-05-05T16:53:44.596Z,20.10
2023-05-05T16:56:12.913Z,20.10
2023-05-05T16:58:40.238Z,20.10
2023-05-05T17:01:07.253Z,20.10
2023-05-05T17:03:34.104Z,20.10
2023-05-05T17:06:01.005Z,20.10
2023-05-05T17:08:27.900Z,20.10
2023-05-05T17:10:54.756Z,20.10
2023-05-05T17:13:23.112Z,20.10
2023-05-05T17:15:50.233Z,20.10
2023-05-05T17:18:20.092Z,20.00
2023-05-05T17:20:47.030Z,20.00
2023-05-05T17:23:13.867Z,20.00
2023-05-05T17:25:40.742Z,20.00
2023-05-05T17:28:07.711Z,20.00
2023-05-05T17:30:34.591Z,20.00
2023-05-05T17:33:01.478Z,20.00
2023-05-05T17:35:28.562Z,20.00
2023-05-05T17:37:55.468Z,20.00
2023-05-05T17:40:22.484Z,20.00
2023-05-05T17:42:52.987Z,20.00
2023-05-05T17:45:19.860Z,20.00
2023-05-05T17:47:46.706Z,19.90
2023-05-05T17:50:13.700Z,20.00
2023-05-05T17:52:42.191Z,19.90
2023-05-05T17:55:09.717Z,19.90
2023-05-05T17:57:36.775Z,20.00
2023-05-05T18:00:07.168Z,20.00
2023-05-05T18:02:37.249Z,19.90
2023-05-05T18:05:04.885Z,19.90
2023-05-05T18:07:34.045Z,20.00
2023-05-05T18:10:01.001Z,19.90
2023-05-05T18:12:28.375Z,20.00
2023-05-05T18:14:55.287Z,19.90
2023-05-05T18:17:22.303Z,19.90
2023-05-05T18:19:49.643Z,19.90
2023-05-05T18:22:17.006Z,19.90
2023-05-05T18:24:43.934Z,19.90
2023-05-05T18:27:10.986Z,19.90
2023-05-05T18:29:37.999Z,19.90
2023-05-05T18:32:07.760Z,19.90
2023-05-05T18:34:36.106Z,19.90
2023-05-05T18:37:03.615Z,19.90
2023-05-05T18:39:30.535Z,19.90
2023-05-05T18:41:57.481Z,19.80
2023-05-05T18:44:24.386Z,19.90
2023-05-05T18:46:51.656Z,19.90
2023-05-05T18:49:21.482Z,19.80
2023-05-05T18:51:48.357Z,19.80
2023-05-05T18:54:15.215Z,19.80
2023-05-05T18:56:42.390Z,19.80
2023-05-05T18:59:10.828Z,19.80
2023-05-05T19:01:37.704Z,19.80
2023-05-05T19:04:08.486Z,19.80
2023-05-05T19:06:41.479Z,19.80
2023-05-05T19:09:08.693Z,19.80
2023-05-05T19:11:43.596Z,19.80
2023-05-05T19:14:12.163Z,19.80
2023-05-05T19:16:47.580Z,19.80
2023-05-05T19:19:14.542Z,19.80
2023-05-05T19:21:43.957Z,19.80
2023-05-05T19:24:13.738Z,19.80
2023-05-05T19:26:44.582Z,19.70
2023-05-05T19:29:14.377Z,19.80
2023-05-05T19:31:51.378Z,19.80
2023-05-05T19:34:24.553Z,19.80
2023-05-05T19:36:55.029Z,19.80
2023-05-05T19:39:24.751Z,19.80
2023-05-05T19:41:54.245Z,19.80
2023-05-05T19:44:36.799Z,19.80
2023-05-05T19:47:05.097Z,19.90
2023-05-05T19:49:32.106Z,19.90
2023-05-05T19:51:59.131Z,19.90
2023-05-05T19:54:27.997Z,19.90
2023-05-05T19:57:19.276Z,19.90
2023-05-05T19:59:54.906Z,19.90
2023-05-05T20:02:26.770Z,19.90
2023-05-05T20:04:54.167Z,19.90
2023-05-05T20:10:37.878Z,19.90
2023-05-05T20:13:06.777Z,19.90
2023-05-05T20:15:36.437Z,19.90
2023-05-05T20:18:09.411Z,19.90
2023-05-05T20:20:39.876Z,19.90
2023-05-05T20:26:22.804Z,19.90
2023-05-05T20:28:52.322Z,19.90
2023-05-05T20:31:19.361Z,19.90
2023-05-05T20:33:46.326Z,19.90
2023-05-05T20:36:13.348Z,19.90
2023-05-05T20:38:40.313Z,19.90
2023-05-05T20:41:07.257Z,19.90
2023-05-05T20:43:39.367Z,19.90
2023-05-05T20:46:12.902Z,19.90
2023-05-05T20:48:42.446Z,19.90
2023-05-05T20:51:10.092Z,19.90
2023-05-05T20:53:36.946Z,19.90
2023-05-05T20:56:05.719Z,19.90
2023-05-05T20:58:33.368Z,19.90
2023-05-05T21:01:00.701Z,19.90
2023-05-05T21:03:27.655Z,19.90
2023-05-05T21:05:56.252Z,19.90
2023-05-05T21:08:23.124Z,20.40
2023-05-05T21:10:52.178Z,20.80
2023-05-05T21:13:19.210Z,20.90
2023-05-05T21:15:46.181Z,20.90
2023-05-05T21:18:13.190Z,20.80
2023-05-05T21:20:42.595Z,20.70
2023-05-05T21:23:09.482Z,20.60
2023-05-05T21:25:37.585Z,20.60
2023-05-05T21:28:04.630Z,20.60
2023-05-05T21:30:31.646Z,20.50
2023-05-05T21:33:33.170Z,20.50
2023-05-05T21:36:03.399Z,20.50
2023-05-05T21:38:30.449Z,20.50
2023-05-05T21:40:59.115Z,20.40
2023-05-05T21:43:29.113Z,20.40
2023-05-05T21:46:03.417Z,20.40
2023-05-05T21:48:34.767Z,20.40
2023-05-05T21:51:01.887Z,20.40
2023-05-05T21:53:31.208Z,20.40
2023-05-05T21:55:58.246Z,20.40
2023-05-05T21:58:25.494Z,20.40
2023-05-05T22:00:52.653Z,20.40
2023-05-05T22:03:20.102Z,20.40
2023-05-05T22:05:47.257Z,20.40
2023-05-05T22:08:14.121Z,20.40
2023-05-05T22:10:44.868Z,20.30
2023-05-05T22:13:11.860Z,20.40
2023-05-05T22:15:46.137Z,20.30
2023-05-05T22:18:14.923Z,20.30
2023-05-05T22:20:42.242Z,20.30
2023-05-05T22:23:09.205Z,20.30
2023-05-05T22:25:36.191Z,20.30
2023-05-05T22:28:03.150Z,20.30
2023-05-05T22:30:30.120Z,20.30
2023-05-05T22:32:58.756Z,20.30
2023-05-05T22:35:25.813Z,20.30
2023-05-05T22:37:52.698Z,20.30
2023-05-05T22:40:19.901Z,20.30
2023-05-05T22:42:46.916Z,20.30
2023-05-05T22:45:14.143Z,20.30
2023-05-05T22:47:41.208Z,20.30
2023-05-05T22:50:09.042Z,20.30
2023-05-05T22:52:37.369Z,20.30
2023-05-05T22:55:04.536Z,20.20
2023-05-05T22:57:31.478Z,20.30
2023-05-05T22:59:58.374Z,20.30
2023-05-05T23:02:26.706Z,20.20
2023-05-05T23:04:53.810Z,20.20
2023-05-05T23:07:21.008Z,20.30
2023-05-05T23:09:48.787Z,20.30
2023-05-05T23:12:17.042Z,20.20
2023-05-05T23:14:44.970Z,20.30
2023-05-05T23:17:12.509Z,20.20
2023-05-05T23:19:39.446Z,20.20
2023-05-05T23:22:12.522Z,20.20
2023-05-05T23:24:42.439Z,20.20
2023-05-05T23:27:13.349Z,20.20
2023-05-05T23:29:40.236Z,20.20
2023-05-05T23:32:07.107Z,20.20
2023-05-05T23:34:34.002Z,20.20
2023-05-05T23:37:00.882Z,20.20
2023-05-05T23:39:27.913Z,20.20
2023-05-05T23:41:57.026Z,20.20
2023-05-05T23:44:26.263Z,20.20
2023-05-05T23:46:53.922Z,20.20
2023-05-05T23:49:20.756Z,20.20
2023-05-05T23:51:48.731Z,20.20
2023-05-05T23:54:16.728Z,20.20
2023-05-05T23:56:43.801Z,20.20
2023-05-05T23:59:10.652Z,20.20
